Terminal Aerodrome Forecast
Issued by NWS

Home | Current Version | Previous Version | Text Only | Print | Product List | Glossary On
Versions: 1 2 3 4 5 6 7 8 9 10 11 12 13 14 15 16 17
000
FTUS43 KDLH 271120
TAFHIB
TAF
KHIB 271120Z 2712/2812 36009KT P6SM OVC010
     FM271700 33010KT P6SM OVC010
     FM280200 31007KT P6SM VCSH OVC015
     FM280600 30006KT P6SM OVC008=

USA.gov is the U.S. government's official web portal to all federal, state and local government web resources and services.